Time;durP1;ratioP1;P1;durP2;ratioP2;P2;SDS_P1;SDS_P2;PMS_P1;PMS_P2;Temp;Humidity;BMP_temperature;BMP_pressure;BME280_temperature;BME280_humidity;BME280_pressure;Samples;Min_cycle;Max_cycle;Signal;HPM_P1;HPM_P2
2022/11/24 00:01:17;;;;;;;;;;;;;;;;;;;;;
2022/11/24 00:04:16;;;;;;;10.50;5.13;;;;;;;11.34;82.24;99889.09;5045382;28;20057;-91
2022/11/24 00:06:54;;;;;;;;;;;;;;;;;;;;;
2022/11/24 00:09:32;;;;;;;9.45;5.43;;;;;;;11.54;82.01;99903.69;5039659;28;20049;-91
2022/11/24 00:12:00;;;;;;;10.70;5.60;;;;;;;11.26;82.07;99867.66;5025362;28;20097;-93
2022/11/24 00:14:30;;;;;;;12.57;5.10;;;;;;;11.22;81.95;99866.38;5026759;28;20041;-94
2022/11/24 00:16:58;;;;;;;8.45;5.03;;;;;;;11.30;81.69;99882.41;5028421;28;20042;-94
2022/11/24 00:19:35;;;;;;;10.02;6.50;;;;;;;11.20;81.57;99878.13;5014346;28;20227;-95
2022/11/24 00:22:38;;;;;;;10.52;5.32;;;;;;;11.16;81.70;99871.44;5014384;28;20065;-94
2022/11/24 00:25:50;;;;;;;15.93;7.30;;;;;;;10.89;82.04;99846.00;4993494;28;20057;-94
2022/11/24 00:31:36;;;;;;;11.43;5.70;;;;;;;10.94;82.32;99875.06;4983547;28;20037;-90
2022/11/24 00:34:43;;;;;;;11.75;5.97;;;;;;;11.08;82.23;99909.19;5023861;28;20031;-91
2022/11/24 00:37:10;;;;;;;12.38;5.90;;;;;;;10.83;82.17;99862.03;4998288;28;20046;-89
2022/11/24 00:39:59;;;;;;;11.98;6.18;;;;;;;10.89;82.56;99894.41;5002732;28;20045;-90
2022/11/24 00:42:30;;;;;;;12.70;5.57;;;;;;;10.61;82.55;99861.06;5017170;28;20034;-90
2022/11/24 00:49:00;;;;;;;14.20;5.70;;;;;;;10.85;83.00;99919.16;4961343;29;20054;-92
2022/11/24 00:51:29;;;;;;;12.30;5.20;;;;;;;10.44;83.43;99857.63;4937691;29;20987;-92
2022/11/24 00:54:05;;;;;;;10.13;5.10;;;;;;;10.68;83.12;99894.28;5002517;28;20041;-92
2022/11/24 00:56:46;;;;;;;12.10;6.63;;;;;;;10.55;83.10;99878.72;5008434;28;20506;-91
2022/11/24 00:59:56;;;;;;;9.93;5.30;;;;;;;10.69;83.21;99896.75;5007717;28;20034;-89
2022/11/24 01:02:44;;;;;;;10.50;4.45;;;;;;;10.66;82.99;99913.25;5030605;28;20038;-89
2022/11/24 01:05:12;;;;;;;9.07;4.93;;;;;;;10.39;83.39;99868.94;5023934;28;20066;-93
2022/11/24 01:07:40;;;;;;;8.13;3.58;;;;;;;10.43;83.81;99898.97;4980132;28;20281;-91
2022/11/24 01:10:08;;;;;;;8.10;3.78;;;;;;;10.36;83.23;99880.03;4992475;28;21078;-89
2022/11/24 01:13:12;;;;;;;8.07;4.10;;;;;;;10.38;82.97;99880.72;4999333;28;20061;-92
2022/11/24 01:16:41;;;;;;;;;;;;;;;;;;;;;
2022/11/24 01:19:42;;;;;;;8.95;4.70;;;;;;;10.28;82.83;99869.34;4938460;29;20114;-94
2022/11/24 01:22:08;;;;;;;7.65;4.10;;;;;;;10.17;82.99;99862.50;4944303;28;20046;-93
2022/11/24 01:24:34;;;;;;;8.40;4.30;;;;;;;10.37;83.46;99897.00;4974155;28;20046;-92
2022/11/24 01:27:00;;;;;;;11.70;4.30;;;;;;;10.45;83.05;99905.00;5001419;28;20061;-92
2022/11/24 01:29:49;;;;;;;8.77;5.35;;;;;;;10.55;82.54;99892.16;4995297;28;20038;-91
2022/11/24 01:32:15;;;;;;;12.98;4.47;;;;;;;10.20;82.42;99829.09;4994949;28;20038;-90
2022/11/24 01:34:47;;;;;;;6.18;3.97;;;;;;;10.20;82.22;99848.72;4996348;28;20537;-93
2022/11/24 01:37:13;;;;;;;9.50;4.47;;;;;;;10.27;81.97;99846.16;4983168;28;20037;-92
2022/11/24 01:39:43;;;;;;;10.25;3.95;;;;;;;10.39;82.06;99870.78;5043197;23;20034;-91
2022/11/24 01:42:59;;;;;;;9.32;4.68;;;;;;;10.47;81.93;99887.69;4943130;28;20517;-89
2022/11/24 01:45:39;;;;;;;10.43;3.80;;;;;;;10.11;81.95;99834.53;4965644;28;20054;-91
2022/11/24 01:48:10;;;;;;;7.15;3.70;;;;;;;10.09;82.27;99839.22;4957781;28;20526;-91
2022/11/24 01:50:41;;;;;;;8.50;3.70;;;;;;;10.13;82.04;99856.63;4940125;28;20081;-90
2022/11/24 01:53:14;;;;;;;7.80;3.75;;;;;;;10.02;81.80;99834.72;4955425;28;20044;-91
2022/11/24 01:55:40;;;;;;;9.30;3.90;;;;;;;10.14;81.90;99849.44;4940773;28;20035;-93
2022/11/24 01:58:31;;;;;;;7.45;3.72;;;;;;;10.30;82.02;99886.97;4982796;28;20057;-95
2022/11/24 02:01:28;;;;;;;5.93;3.40;;;;;;;10.14;82.00;99863.69;4978141;28;20097;-93
2022/11/24 02:04:32;;;;;;;6.53;3.42;;;;;;;10.39;81.92;99892.28;4974206;28;20038;-93
2022/11/24 02:07:02;;;;;;;7.45;3.60;;;;;;;10.26;81.77;99864.13;4980790;28;20181;-93
2022/11/24 02:10:14;;;;;;;9.00;3.97;;;;;;;10.23;81.75;99858.25;4974224;28;20117;-94
2022/11/24 02:12:42;;;;;;;5.68;3.67;;;;;;;10.34;81.88;99882.91;4958301;28;20047;-92
2022/11/24 02:15:17;;;;;;;8.23;3.50;;;;;;;9.99;82.14;99829.72;4957282;28;20468;-95
2022/11/24 02:17:47;;;;;;;8.32;3.80;;;;;;;9.96;81.59;99827.41;4953901;28;20051;-93
2022/11/24 02:20:26;;;;;;;7.50;3.60;;;;;;;10.06;81.55;99841.41;4954110;28;20047;-94
2022/11/24 02:23:00;;;;;;;9.73;4.10;;;;;;;10.11;82.11;99850.63;4954627;28;20042;-95
2022/11/24 02:26:19;;;;;;;7.95;3.55;;;;;;;10.01;81.92;99827.69;4956279;28;20027;-93
2022/11/24 02:29:02;;;;;;;9.93;4.05;;;;;;;10.09;81.74;99841.06;4963316;28;20046;-93
2022/11/24 02:31:48;;;;;;;7.93;4.28;;;;;;;10.08;81.50;99847.47;4952769;28;20054;-95
2022/11/24 02:34:15;;;;;;;10.38;4.22;;;;;;;10.08;81.38;99850.97;4969577;28;20483;-95
2022/11/24 02:36:42;;;;;;;;;;;;;;;10.12;81.70;99867.59;4971267;28;20061;-95
2022/11/24 02:39:18;;;;;;;8.15;3.42;;;;;;;9.85;81.83;99834.81;4970873;28;19922;-91
2022/11/24 02:41:48;;;;;;;7.88;3.20;;;;;;;9.90;81.95;99864.69;4938136;28;20112;-92
2022/11/24 02:44:21;;;;;;;5.30;3.00;;;;;;;9.77;82.27;99837.56;4938986;28;20042;-91
2022/11/24 02:47:09;;;;;;;5.85;2.70;;;;;;;9.58;82.67;99830.78;4960642;28;20476;-91
2022/11/24 02:49:35;;;;;;;5.13;2.45;;;;;;;9.57;82.10;99830.94;5002951;23;20411;-91
2022/11/24 02:52:05;;;;;;;7.10;2.58;;;;;;;9.46;82.33;99826.81;5051544;23;20028;-91
2022/11/24 02:54:34;;;;;;;5.53;2.22;;;;;;;9.47;82.46;99839.22;5062653;23;20053;-90
2022/11/24 02:57:00;;;;;;;5.65;2.47;;;;;;;9.52;82.18;99851.09;5031513;23;20089;-92
2022/11/24 02:59:28;;;;;;;;;;;;;;;9.78;82.35;99884.88;5014234;23;20125;-92
2022/11/24 03:01:59;;;;;;;6.32;2.45;;;;;;;9.51;82.43;99849.44;5052434;23;19980;-91
2022/11/24 03:04:26;;;;;;;6.30;2.42;;;;;;;9.70;81.95;99863.44;5050202;23;20061;-90
2022/11/24 03:06:51;;;;;;;3.97;2.20;;;;;;;9.47;82.19;99840.03;5013867;28;20112;-92
2022/11/24 03:09:20;;;;;;;5.88;2.65;;;;;;;9.47;82.13;99861.50;4996524;28;20033;-92
2022/11/24 03:11:47;;;;;;;7.28;2.25;;;;;;;9.54;82.01;99852.78;5033615;23;20656;-93
2022/11/24 03:14:20;;;;;;;6.15;2.20;;;;;;;9.70;82.13;99885.75;5069522;23;20715;-91
2022/11/24 03:16:46;;;;;;;7.38;2.30;;;;;;;9.59;82.46;99861.13;5157608;23;20038;-92
2022/11/24 03:19:16;;;;;;;6.30;2.33;;;;;;;9.47;82.77;99848.09;4991010;28;20061;-92
2022/11/24 03:21:47;;;;;;;12.73;3.00;;;;;;;9.59;82.67;99866.50;5007850;23;20451;-94
2022/11/24 03:24:19;;;;;;;9.50;3.10;;;;;;;9.49;82.41;99843.38;4988489;28;20037;-91
2022/11/24 03:26:45;;;;;;;7.40;2.65;;;;;;;9.36;82.44;99827.00;5004420;28;20124;-92
2022/11/24 03:29:18;;;;;;;5.90;2.95;;;;;;;9.42;82.12;99860.38;4995076;28;20050;-94
2022/11/24 03:31:43;;;;;;;7.10;2.58;;;;;;;9.38;82.12;99854.50;4999823;28;20040;-92
2022/11/24 03:34:15;;;;;;;9.05;2.55;;;;;;;9.46;82.21;99872.44;4977499;28;20125;-91
2022/11/24 03:36:43;;;;;;;6.60;2.30;;;;;;;9.72;82.25;99893.63;5023366;28;20025;-93
2022/11/24 03:39:08;;;;;;;8.52;2.72;;;;;;;9.74;82.32;99910.41;4999443;28;20029;-92
2022/11/24 03:41:38;;;;;;;6.20;2.80;;;;;;;9.71;81.87;99913.41;5000711;28;20093;-94
2022/11/24 03:44:05;;;;;;;5.88;2.80;;;;;;;9.36;81.82;99874.47;5024372;28;20065;-95
2022/11/24 03:46:30;;;;;;;6.18;3.03;;;;;;;9.41;82.24;99891.72;4979853;28;20134;-94
2022/11/24 03:48:59;;;;;;;9.02;3.20;;;;;;;9.34;82.65;99889.88;4978082;28;20049;-93
2022/11/24 03:51:27;;;;;;;5.93;3.15;;;;;;;9.39;83.05;99901.78;4961354;28;20132;-93
2022/11/24 03:53:58;;;;;;;10.43;3.05;;;;;;;9.42;83.08;99904.13;5012427;28;20046;-91
2022/11/24 03:56:25;;;;;;;7.10;3.00;;;;;;;9.21;83.04;99890.44;4990142;28;20030;-91
2022/11/24 03:58:53;;;;;;;5.82;3.10;;;;;;;9.09;83.00;99880.06;4972562;28;20088;-91
2022/11/24 04:01:20;;;;;;;7.45;3.15;;;;;;;9.02;83.61;99887.09;5013235;28;20025;-89
2022/11/24 04:03:47;;;;;;;9.90;2.97;;;;;;;9.12;83.47;99902.19;4995863;28;20060;-92
2022/11/24 04:06:13;;;;;;;10.35;2.95;;;;;;;9.39;82.89;99935.81;4980339;28;20152;-92
2022/11/24 04:08:42;;;;;;;6.53;2.85;;;;;;;9.15;83.29;99909.88;5008122;28;20133;-95
2022/11/24 04:12:42;;;;;;;7.90;3.17;;;;;;;9.07;83.76;99911.56;4976134;28;20041;-94
2022/11/24 04:13:57;;;;;;;6.15;2.70;;;;;;;8.89;83.48;99886.78;4975637;28;20476;-91
2022/11/24 04:16:24;;;;;;;8.52;3.40;;;;;;;8.98;83.99;99925.16;4996396;28;20132;-93
2022/11/24 04:18:56;;;;;;;8.13;3.65;;;;;;;8.63;84.02;99893.16;4980626;28;20084;-93
2022/11/24 04:21:23;;;;;;;8.57;4.20;;;;;;;8.68;84.02;99910.56;4972938;28;20058;-92
2022/11/24 04:23:50;;;;;;;8.88;4.35;;;;;;;8.65;84.22;99912.56;4951560;28;20046;-92
2022/11/24 04:26:15;;;;;;;;;;;;;;;8.81;84.29;99954.63;4998080;28;20098;-92
2022/11/24 04:28:42;;;;;;;9.80;4.53;;;;;;;8.53;84.74;99924.63;4980943;28;19922;-93
2022/11/24 04:31:09;;;;;;;8.88;4.55;;;;;;;8.39;84.95;99918.03;4995663;28;20510;-91
2022/11/24 04:33:38;;;;;;;9.18;4.60;;;;;;;8.39;85.08;99915.38;4983082;28;20476;-92
2022/11/24 04:36:09;;;;;;;9.65;5.00;;;;;;;8.45;84.92;99927.28;4963922;28;20048;-94
2022/11/24 04:38:36;;;;;;;11.00;5.20;;;;;;;8.39;85.10;99938.66;4983955;28;20031;-92
2022/11/24 04:41:04;;;;;;;10.43;5.78;;;;;;;8.38;85.28;99942.31;4957000;28;20039;-92
2022/11/24 04:43:39;;;;;;;9.00;5.40;;;;;;;8.23;85.87;99937.59;4958965;28;20031;-92
2022/11/24 04:46:07;;;;;;;13.63;5.97;;;;;;;8.18;85.80;99915.81;4947773;28;20189;-93
2022/11/24 04:48:35;;;;;;;15.13;6.68;;;;;;;8.20;86.08;99926.38;4973547;28;20507;-92
2022/11/24 04:51:06;;;;;;;11.43;5.93;;;;;;;8.18;85.99;99926.53;4964312;28;20046;-93
2022/11/24 04:53:33;;;;;;;12.77;6.55;;;;;;;8.20;86.24;99923.72;4978420;28;20039;-93
2022/11/24 04:56:05;;;;;;;10.02;6.47;;;;;;;8.32;86.17;99954.53;4976391;28;20088;-92
2022/11/24 04:58:35;;;;;;;10.98;6.65;;;;;;;8.50;86.30;99972.34;4972303;28;20042;-93
2022/11/24 05:01:06;;;;;;;11.57;6.85;;;;;;;8.28;86.29;99949.66;4963474;28;20035;-94
2022/11/24 05:03:34;;;;;;;13.45;7.03;;;;;;;8.20;86.76;99950.47;4940195;28;20130;-94
2022/11/24 05:06:02;;;;;;;12.07;7.53;;;;;;;7.98;87.04;99930.47;4978192;28;20406;-91
2022/11/24 05:08:28;;;;;;;16.83;7.97;;;;;;;8.15;87.06;99959.00;4971498;28;20116;-93
2022/11/24 05:11:10;;;;;;;12.60;7.60;;;;;;;8.30;87.10;99974.44;4973343;28;20026;-92
2022/11/24 05:13:36;;;;;;;14.45;7.38;;;;;;;8.27;86.57;99959.53;4982363;28;20035;-94
2022/11/24 05:16:39;;;;;;;;;;;;;;;;;;;;;
2022/11/24 05:19:07;;;;;;;16.08;8.02;;;;;;;8.53;85.70;99986.25;5014191;28;20059;-93
2022/11/24 05:21:37;;;;;;;13.10;8.10;;;;;;;8.39;85.37;99952.03;4987752;28;20072;-91
2022/11/24 05:24:05;;;;;;;14.65;8.25;;;;;;;8.69;85.39;99995.34;5014948;28;20029;-94
2022/11/24 05:26:38;;;;;;;20.15;9.05;;;;;;;8.68;85.83;100001.69;4991851;28;20640;-94
2022/11/24 05:29:07;;;;;;;16.63;9.48;;;;;;;8.78;85.37;99997.00;5019336;28;20058;-93
2022/11/24 05:31:43;;;;;;;15.60;8.93;;;;;;;8.68;85.38;99980.25;5019006;28;20026;-95
2022/11/24 05:34:14;;;;;;;18.05;9.60;;;;;;;8.80;85.46;100003.03;5016680;28;20037;-94
2022/11/24 05:37:01;;;;;;;23.73;9.90;;;;;;;8.62;85.46;99966.50;5010983;28;20039;-94
2022/11/24 05:39:38;;;;;;;23.13;10.98;;;;;;;8.83;85.85;100010.78;5011250;28;20057;-95
2022/11/24 05:44:51;;;;;;;55.63;30.45;;;;;;;8.63;86.33;99973.53;4987416;28;20122;-93
2022/11/24 05:47:17;;;;;;;77.00;39.90;;;;;;;8.83;86.80;100010.78;4999322;28;20061;-93
2022/11/24 05:49:44;;;;;;;95.40;52.33;;;;;;;8.72;86.30;99989.63;5001578;28;20077;-91
2022/11/24 05:52:13;;;;;;;88.60;52.50;;;;;;;8.68;85.91;99982.94;4991600;28;20030;-93
2022/11/24 05:54:41;;;;;;;82.30;48.38;;;;;;;8.62;86.20;99985.28;5004880;28;20037;-92
2022/11/24 05:57:07;;;;;;;84.28;50.47;;;;;;;8.82;86.21;100023.31;4988315;28;20052;-92
2022/11/24 05:59:34;;;;;;;;;;;;;;;8.96;85.99;100037.91;4983910;28;20069;-92
2022/11/24 06:02:01;;;;;;;59.15;35.92;;;;;;;8.65;86.19;100014.41;4995809;28;20013;-93
2022/11/24 06:04:28;;;;;;;51.22;31.02;;;;;;;8.60;86.12;100019.41;4986009;28;20030;-93
2022/11/24 06:06:54;;;;;;;46.00;26.20;;;;;;;8.62;85.82;100017.44;5002364;28;20037;-92
2022/11/24 06:09:22;;;;;;;45.25;23.92;;;;;;;8.59;85.92;100004.38;4996090;28;20103;-93
2022/11/24 06:11:50;;;;;;;40.65;21.58;;;;;;;8.57;86.20;100009.03;4987096;28;20042;-93
2022/11/24 06:14:16;;;;;;;36.58;21.40;;;;;;;8.64;86.45;100022.63;4997506;28;20125;-91
2022/11/24 06:16:50;;;;;;;31.30;17.17;;;;;;;8.39;86.77;99992.22;5007395;28;20041;-93
2022/11/24 06:19:16;;;;;;;40.45;17.65;;;;;;;8.58;87.38;100034.00;5031273;28;20106;-92
2022/11/24 06:21:43;;;;;;;31.63;15.40;;;;;;;8.81;86.51;100050.31;4986140;28;20100;-94
2022/11/24 06:24:11;;;;;;;36.72;14.85;;;;;;;8.73;86.13;100015.44;4961398;28;20038;-93
2022/11/24 06:26:39;;;;;;;27.77;14.38;;;;;;;8.90;85.92;100030.53;4974794;28;20513;-94
2022/11/24 06:29:05;;;;;;;29.08;14.88;;;;;;;9.12;85.60;100047.00;4957338;28;20038;-95
2022/11/24 06:31:38;;;;;;;26.48;13.98;;;;;;;9.19;85.11;100042.63;4975922;28;20058;-96
2022/11/24 06:34:11;;;;;;;35.45;15.65;;;;;;;9.54;84.60;100081.69;4974723;28;20058;-93
2022/11/24 06:36:40;;;;;;;33.92;15.43;;;;;;;9.39;84.22;100040.44;4982081;28;20053;-95
2022/11/24 06:39:09;;;;;;;33.20;15.23;;;;;;;9.74;83.56;100074.16;4960580;28;20408;-96
2022/11/24 06:41:45;;;;;;;29.65;15.10;;;;;;;9.86;83.38;100061.22;4974953;28;20114;-94
2022/11/24 06:44:15;;;;;;;31.25;15.40;;;;;;;9.81;82.90;100056.34;4978004;28;20057;-96
2022/11/24 06:46:42;;;;;;;28.77;14.20;;;;;;;9.78;82.78;100042.41;4940793;28;20506;-91
2022/11/24 06:49:08;;;;;;;23.60;13.93;;;;;;;10.12;81.88;100060.97;4987138;28;20038;-92
2022/11/24 06:51:34;;;;;;;31.10;15.27;;;;;;;10.28;81.48;100060.94;4980476;28;20451;-95
2022/11/24 06:54:01;;;;;;;;;;;;;;;10.56;80.58;100073.94;4969554;28;20543;-91
2022/11/24 06:56:28;;;;;;;27.55;14.15;;;;;;;10.65;79.80;100058.59;4979741;28;20358;-94
2022/11/24 06:58:55;;;;;;;27.85;14.68;;;;;;;11.04;77.52;100082.72;5003091;28;20045;-94
2022/11/24 07:01:25;;;;;;;27.20;13.80;;;;;;;10.97;76.39;100054.88;4998832;28;20038;-94
2022/11/24 07:03:57;;;;;;;27.88;14.30;;;;;;;11.05;75.92;100054.84;4964393;28;20498;-93
2022/11/24 07:06:56;;;;;;;24.38;14.93;;;;;;;11.16;76.09;100027.50;5005807;28;20086;-94
2022/11/24 07:09:23;;;;;;;24.88;13.98;;;;;;;11.54;75.25;100073.28;4991631;28;20131;-91
2022/11/24 07:11:50;;;;;;;25.73;14.52;;;;;;;11.40;74.51;100039.94;4965962;28;20041;-88
2022/11/24 07:14:23;;;;;;;24.58;14.60;;;;;;;11.71;73.79;100036.28;4971756;28;20113;-91
2022/11/24 07:16:49;;;;;;;28.67;14.85;;;;;;;11.71;72.38;100019.28;4991373;28;20495;-87
2022/11/24 07:19:16;;;;;;;34.80;15.50;;;;;;;12.19;71.82;100039.47;5007646;28;20109;-92
2022/11/24 07:21:42;;;;;;;24.25;13.57;;;;;;;12.72;70.27;100025.81;4959315;28;20041;-89
2022/11/24 07:24:10;;;;;;;34.95;15.70;;;;;;;12.85;69.43;100050.25;4999508;28;20089;-91
2022/11/24 07:26:36;;;;;;;34.50;16.05;;;;;;;13.16;68.49;100024.84;4993371;28;20055;-91
2022/11/24 07:29:04;;;;;;;30.17;15.57;;;;;;;13.75;67.27;100044.47;5020817;28;20120;-92
2022/11/24 07:31:30;;;;;;;27.38;15.07;;;;;;;13.66;66.78;100031.09;4971767;28;20050;-89
2022/11/24 07:33:58;;;;;;;22.52;14.50;;;;;;;14.10;65.83;100046.16;4984601;28;20044;-89
2022/11/24 07:36:23;;;;;;;20.67;14.20;;;;;;;14.53;64.23;100045.94;5014035;28;20088;-89
2022/11/24 07:38:51;;;;;;;26.30;14.27;;;;;;;15.15;62.45;100054.91;5010746;28;20037;-89
2022/11/24 07:41:18;;;;;;;29.33;15.95;;;;;;;15.41;61.69;100039.75;4993423;28;20470;-95
2022/11/24 07:43:44;;;;;;;31.05;15.55;;;;;;;15.70;59.64;100075.56;4994969;28;20046;-90
2022/11/24 07:46:14;;;;;;;31.38;16.67;;;;;;;15.75;59.52;100064.97;5011662;28;20116;-92
2022/11/24 07:48:40;;;;;;;26.52;15.20;;;;;;;16.23;58.28;100045.72;5008665;28;20067;-92
2022/11/24 07:51:08;;;;;;;;;;;;;;;16.85;56.41;100068.66;5037058;28;20029;-90
2022/11/24 07:53:34;;;;;;;23.60;11.98;;;;;;;16.72;56.44;100062.47;5019632;28;20350;-90
2022/11/24 07:56:01;;;;;;;;;;;;;;;17.81;53.38;100061.34;4982387;28;20236;-91
2022/11/24 07:58:28;;;;;;;19.25;11.00;;;;;;;18.39;52.11;100059.31;5008610;28;19914;-91
2022/11/24 08:00:55;;;;;;;20.83;12.25;;;;;;;18.43;51.20;100033.31;5010729;28;20030;-92
2022/11/24 08:03:24;;;;;;;26.02;12.40;;;;;;;18.19;51.49;100049.50;4969228;28;20498;-91
2022/11/24 08:06:01;;;;;;;31.40;13.48;;;;;;;18.20;51.92;100063.91;4981659;28;20053;-90
2022/11/24 08:08:32;;;;;;;28.67;13.95;;;;;;;18.18;52.07;100071.47;4969208;28;20030;-91
2022/11/24 08:11:07;;;;;;;25.08;12.60;;;;;;;18.10;51.29;100057.09;4966553;28;20108;-91
2022/11/24 08:13:34;;;;;;;24.03;12.77;;;;;;;17.90;51.75;100043.69;5006776;28;20041;-90
2022/11/24 08:16:04;;;;;;;24.33;13.27;;;;;;;17.97;51.77;100059.13;4991395;28;20042;-91
2022/11/24 08:18:30;;;;;;;21.90;11.90;;;;;;;18.20;51.56;100042.97;5003340;28;20100;-93
2022/11/24 08:20:58;;;;;;;;;;;;;;;18.35;51.69;100065.22;4996476;28;20046;-90
2022/11/24 08:23:27;;;;;;;24.65;12.30;;;;;;;18.49;51.53;100018.75;4981471;28;19914;-91
2022/11/24 08:25:55;;;;;;;28.00;12.45;;;;;;;19.03;50.02;100049.69;5000952;28;20483;-92
2022/11/24 08:28:28;;;;;;;30.98;12.68;;;;;;;19.57;49.57;100066.94;4998056;28;20478;-93
2022/11/24 08:31:05;;;;;;;29.60;12.80;;;;;;;19.92;47.65;100047.03;4980741;28;20046;-90
2022/11/24 08:33:33;;;;;;;34.38;13.65;;;;;;;20.74;46.06;100029.72;4988292;28;20056;-92
2022/11/24 08:36:11;;;;;;;33.17;14.18;;;;;;;21.85;44.45;100062.03;4981838;28;20041;-93
2022/11/24 08:38:37;;;;;;;27.70;14.05;;;;;;;22.54;42.16;100058.91;4976444;28;20185;-90
2022/11/24 08:41:10;;;;;;;27.90;13.02;;;;;;;22.94;40.72;100043.22;4946796;28;20043;-93
2022/11/24 08:43:45;;;;;;;27.55;13.18;;;;;;;22.49;41.59;100044.34;5000463;28;20104;-89
2022/11/24 08:46:15;;;;;;;31.35;14.25;;;;;;;21.85;42.38;100033.84;4998056;28;20078;-94
2022/11/24 08:48:46;;;;;;;32.90;14.63;;;;;;;21.95;43.03;100060.53;4979398;28;20038;-88
2022/11/24 08:51:13;;;;;;;34.70;14.35;;;;;;;22.72;41.08;100044.06;4993466;28;20124;-89
2022/11/24 08:53:39;;;;;;;35.17;14.82;;;;;;;23.23;40.67;100043.81;4956188;28;20035;-89
2022/11/24 08:56:05;;;;;;;33.38;17.30;;;;;;;23.78;38.98;100028.13;4974106;28;20042;-89
2022/11/24 08:58:32;;;;;;;32.72;15.32;;;;;;;24.57;37.88;100045.63;4975699;28;20054;-88
2022/11/24 09:01:07;;;;;;;27.67;14.30;;;;;;;24.69;36.99;100020.66;4963742;28;20025;-88
2022/11/24 09:03:33;;;;;;;32.35;15.32;;;;;;;25.07;36.39;100044.09;4992025;28;20050;-88
2022/11/24 09:06:00;;;;;;;41.15;15.88;;;;;;;25.33;35.99;100035.91;4985370;28;20536;-86
2022/11/24 09:08:29;;;;;;;37.25;17.15;;;;;;;25.93;34.86;100044.47;4979957;28;20077;-89
2022/11/24 09:11:09;;;;;;;41.10;17.50;;;;;;;25.40;35.56;100029.06;4994361;28;20046;-91
2022/11/24 09:13:38;;;;;;;40.45;17.17;;;;;;;25.12;36.66;100046.03;4988140;28;20117;-91
2022/11/24 09:16:09;;;;;;;31.08;17.67;;;;;;;25.10;36.58;100032.56;4957217;28;20128;-90
2022/11/24 09:18:34;;;;;;;35.33;18.65;;;;;;;25.11;36.08;100033.41;4954029;28;20122;-90
2022/11/24 09:21:20;;;;;;;39.65;20.35;;;;;;;25.35;36.07;100051.03;5001613;28;20128;-91
2022/11/24 09:23:50;;;;;;;37.97;23.55;;;;;;;26.31;34.65;100030.03;5005637;28;20042;-89
2022/11/24 09:26:23;;;;;;;37.47;24.30;;;;;;;26.91;33.32;100029.25;5012582;28;20037;-89
2022/11/24 09:28:53;;;;;;;41.30;24.42;;;;;;;25.93;34.53;100044.47;5017828;28;20124;-89
2022/11/24 09:31:19;;;;;;;40.38;24.30;;;;;;;24.94;36.39;100042.72;4989677;28;20517;-87
2022/11/24 09:33:45;;;;;;;36.88;22.38;;;;;;;23.96;38.00;100018.63;4984291;28;20031;-87
2022/11/24 09:36:12;;;;;;;36.10;20.17;;;;;;;24.13;37.90;100024.75;4989671;28;20046;-88
2022/11/24 09:38:39;;;;;;;42.42;22.08;;;;;;;24.94;37.04;100011.66;4990269;28;20042;-85
2022/11/24 09:41:17;;;;;;;31.70;20.08;;;;;;;25.86;35.53;100039.22;4994093;28;20161;-86
2022/11/24 09:44:00;;;;;;;28.27;18.77;;;;;;;25.53;36.12;100040.63;5004541;28;20057;-86
2022/11/24 09:46:28;;;;;;;33.20;18.40;;;;;;;25.33;35.66;100028.47;4998490;28;20040;-86
2022/11/24 09:48:55;;;;;;;44.13;19.67;;;;;;;26.18;35.00;100019.63;5008376;28;20026;-87
2022/11/24 09:51:27;;;;;;;34.88;18.73;;;;;;;26.18;34.68;100035.31;4980172;28;20061;-89
2022/11/24 09:54:03;;;;;;;36.47;19.58;;;;;;;25.43;35.85;100025.75;4996227;28;20030;-88
2022/11/24 09:56:37;;;;;;;34.50;20.08;;;;;;;24.95;36.70;100024.28;4985631;28;20090;-86
2022/11/24 09:59:06;;;;;;;33.35;21.25;;;;;;;24.21;37.99;100016.03;5009534;28;20072;-90
2022/11/24 10:01:38;;;;;;;40.38;20.98;;;;;;;24.30;38.31;100034.72;4970964;28;20481;-84
2022/11/24 10:04:04;;;;;;;40.58;21.83;;;;;;;25.20;36.67;100020.78;4985934;28;20026;-86
2022/11/24 10:06:50;;;;;;;39.17;20.75;;;;;;;25.12;36.43;100004.78;4998337;28;20072;-90
2022/11/24 10:09:44;;;;;;;36.17;20.52;;;;;;;25.58;35.38;100008.41;4999015;28;20080;-87
2022/11/24 10:12:39;;;;;;;47.30;20.17;;;;;;;26.95;33.99;100033.09;5011881;28;20061;-88
2022/11/24 10:15:35;;;;;;;38.70;21.55;;;;;;;26.39;33.92;100025.06;5007901;28;20034;-88
2022/11/24 10:18:38;;;;;;;41.75;21.90;;;;;;;26.96;33.87;100020.94;5014586;28;20034;-90
2022/11/24 10:21:32;;;;;;;32.15;20.83;;;;;;;26.25;35.74;100025.66;5014198;28;20052;-86
2022/11/24 10:24:05;;;;;;;29.42;17.83;;;;;;;25.57;35.92;100000.44;4991489;28;20060;-89
2022/11/24 10:26:35;;;;;;;23.27;17.15;;;;;;;24.12;38.15;100033.28;4996369;28;20041;-87
2022/11/24 10:29:07;;;;;;;26.77;18.17;;;;;;;22.92;40.34;100021.56;5016943;28;20034;-86
2022/11/24 10:31:40;;;;;;;36.33;17.30;;;;;;;22.09;42.70;100029.00;5016401;28;20156;-86
2022/11/24 10:34:13;;;;;;;32.28;16.63;;;;;;;21.32;44.28;100002.34;4995346;28;20076;-88
2022/11/24 10:36:56;;;;;;;31.13;15.02;;;;;;;20.60;45.96;100028.34;4997125;28;20036;-88
2022/11/24 10:39:28;;;;;;;33.90;15.38;;;;;;;19.47;48.75;100052.19;5004796;28;20487;-89
2022/11/24 10:42:25;;;;;;;28.90;15.45;;;;;;;19.03;50.53;100057.88;5013840;28;20037;-86
2022/11/24 10:45:10;;;;;;;37.58;17.73;;;;;;;18.27;53.00;100038.28;4991532;28;20054;-86
2022/11/24 10:47:36;;;;;;;34.15;17.70;;;;;;;17.85;54.64;100046.25;5010131;28;20105;-86
2022/11/24 10:50:03;;;;;;;;;;;;;;;17.84;55.86;100060.91;5008429;28;20057;-87
2022/11/24 10:52:32;;;;;;;34.13;18.90;;;;;;;16.99;57.26;100015.13;5012818;28;19925;-89
2022/11/24 10:54:59;;;;;;;34.17;19.05;;;;;;;16.85;58.80;100037.97;4996689;28;20490;-87
2022/11/24 10:57:34;;;;;;;39.53;19.85;;;;;;;16.44;59.96;100022.91;5019559;28;20030;-88
2022/11/24 11:00:00;;;;;;;40.13;20.20;;;;;;;16.14;61.50;100058.66;5012891;28;20026;-92
2022/11/24 11:02:35;;;;;;;37.78;19.55;;;;;;;15.37;63.35;100009.50;4999322;28;20348;-93
2022/11/24 11:05:30;;;;;;;32.40;18.75;;;;;;;15.18;65.00;100040.94;5006195;28;20417;-92
2022/11/24 11:08:12;;;;;;;40.58;17.42;;;;;;;14.89;66.99;100068.38;5002926;28;20068;-92
2022/11/24 11:10:39;;;;;;;35.72;17.98;;;;;;;14.59;67.23;100022.72;4992027;28;20041;-91
2022/11/24 11:13:27;;;;;;;32.88;19.13;;;;;;;14.43;69.51;100061.72;4991502;28;20413;-91
2022/11/24 11:15:55;;;;;;;31.38;19.58;;;;;;;14.31;69.18;100026.28;4980107;28;20034;-90
2022/11/24 11:18:22;;;;;;;36.67;20.20;;;;;;;14.38;70.61;100047.97;4996857;28;20040;-89
2022/11/24 11:20:55;;;;;;;42.90;22.35;;;;;;;14.41;70.28;100050.25;4984539;28;20046;-92
2022/11/24 11:23:28;;;;;;;45.90;23.67;;;;;;;14.42;70.65;100060.06;5000079;28;20057;-88
2022/11/24 11:26:29;;;;;;;33.00;18.88;;;;;;;14.42;69.94;100053.78;4997003;28;20121;-85
2022/11/24 11:29:18;;;;;;;34.97;17.52;;;;;;;14.13;70.88;100059.25;4990146;28;20123;-86
2022/11/24 11:32:24;;;;;;;42.70;17.75;;;;;;;13.92;71.10;100059.34;5009886;28;20045;-88
2022/11/24 11:34:50;;;;;;;33.45;16.85;;;;;;;13.64;71.40;100022.34;4988149;28;20108;-86
2022/11/24 11:37:16;;;;;;;30.05;16.38;;;;;;;13.82;71.62;100058.84;4994372;28;20045;-87
2022/11/24 11:39:46;;;;;;;23.40;13.77;;;;;;;13.50;70.58;100028.69;4968168;28;20029;-86
2022/11/24 11:42:34;;;;;;;32.38;11.88;;;;;;;13.52;70.29;100072.53;5014342;28;20045;-88
2022/11/24 11:45:14;;;;;;;17.63;11.48;;;;;;;13.28;70.74;100061.09;4982769;28;20061;-86
2022/11/24 11:48:02;;;;;;;27.67;11.82;;;;;;;13.13;70.93;100030.59;5006422;28;20424;-86
2022/11/24 11:50:47;;;;;;;15.52;10.85;;;;;;;12.86;71.57;100046.53;4971629;28;20017;-85
2022/11/24 11:53:13;;;;;;;;;;;;;;;12.85;72.78;100084.47;5000341;28;20013;-86
2022/11/24 11:56:06;;;;;;;22.35;10.75;;;;;;;12.38;72.79;100031.84;5026062;28;20360;-88
2022/11/24 11:58:46;;;;;;;17.63;10.52;;;;;;;12.72;73.17;100095.97;5027865;28;20049;-90
2022/11/24 12:01:38;;;;;;;16.88;10.38;;;;;;;12.68;73.03;100098.19;5032117;28;20034;-89
2022/11/24 12:04:23;;;;;;;14.93;10.10;;;;;;;12.63;72.87;100102.47;5002867;28;20076;-89
2022/11/24 12:07:21;;;;;;;20.95;10.65;;;;;;;12.52;72.23;100065.19;5013973;28;20034;-90
2022/11/24 12:10:20;;;;;;;18.52;10.15;;;;;;;12.52;72.85;100081.38;4999456;28;20040;-88